Airfield :
LOGIN :

Register | Disclaimer

   EN    FR    IT 

 










Legend :    VFR   Marginal VFR   IFR   Intensive IFR   Very Intensive IFR
Visi :
Ceiling :
>= 8 km
>= 3000ft
5 to 8 km
1000 to 3000 ft
1500m to 5 km
500 to 1000 ft
800 to 1500m
200 to 500 ft
< 800m
< 200 ft
Symbols :   Thunderstorms  Fog  Heavy snow  Heavy precipitations  Wind > 20 kt
SIGMETs :     Misc.  Thunderstorms  Icing  Turbulence  Mountain Waves  Volcanic Ashes






- Airport Elevation : 364 ft
- IATA code : FRA


EDDF - Frankfurt Int.

CURRENT METAR :
  • 300420Z AUTO VRB01KT 4900 -RADZ BR FEW016 BKN022 06/06 Q1021 TEMPO 2000 BR

EXPIRED METARs :
  • 300350Z AUTO 24001KT 4600 -RA BR SCT020 BKN026 BKN034 06/06 Q1021 TEMPO 2000 BR
  • 300320Z AUTO VRB01KT 4700 2100 -RA BR FEW020 BKN026 OVC035 06/05 Q1021 TEMPO 1000 BCFG
  • 300250Z AUTO 21001KT 4300 -RADZ BR BKN020 BKN027 BKN038 06/05 Q1021 TEMPO 1000 BCFG
  • 300220Z AUTO VRB01KT 4100 -RA BR SCT019 BKN043 06/05 Q1021 TEMPO 1000 BCFG
  • 300150Z AUTO VRB01KT 4100 BR SCT021 BKN049 06/05 Q1021 TEMPO 1000 BCFG

TAF TAF EDDF
Valid from the 30 at 00:00 until the 01 at 06:00 UTC


292300Z 3000/0106 VRB03KT 6000 SCT003
TEMPO 3000/3006 0600 -DZRA FG BKN001
BECMG 3003/3006 03005KT
TEMPO 3006/3012 4000 -DZRA BR BKN008



MET'MAP, your aeronautical weather chart ! - Copyright ORBIFLY December 2007 - Disclaimer

ORBIFLY MET'MAP TEAM :

Programming & Development : Alexandra Zaïnal
Original concept : Baudouin d'Aumeries
Technical & hardware support : Manuel Goepfert
Assistance : Marc-Olivier Méhu




SOURCES & CREDITS :

   NOAA